createdAt,value
2023-09-06T00:03:06.254Z,11.70
2023-09-06T00:06:44.896Z,11.66
2023-09-06T00:10:17.695Z,11.64
2023-09-06T00:14:08.251Z,11.64
2023-09-06T00:17:41.042Z,11.64
2023-09-06T00:21:08.221Z,11.60
2023-09-06T00:24:52.941Z,11.56
2023-09-06T00:28:23.264Z,11.52
2023-09-06T00:32:12.492Z,11.47
2023-09-06T00:35:53.035Z,11.45
2023-09-06T00:39:33.356Z,11.40
2023-09-06T00:43:01.369Z,11.37
2023-09-06T00:46:26.242Z,11.32
2023-09-06T00:49:55.013Z,11.27
2023-09-06T00:53:19.773Z,11.24
2023-09-06T00:56:48.127Z,11.20
2023-09-06T01:00:19.312Z,11.16
2023-09-06T01:04:04.644Z,11.12
2023-09-06T01:07:36.120Z,11.09
2023-09-06T01:11:35.901Z,11.04
2023-09-06T01:15:16.130Z,11.07
2023-09-06T01:18:44.159Z,11.09
2023-09-06T01:22:53.576Z,11.07
2023-09-06T01:26:20.390Z,11.06
2023-09-06T01:29:47.784Z,11.06
2023-09-06T01:33:16.235Z,11.06
2023-09-06T01:36:52.782Z,11.04
2023-09-06T01:40:21.358Z,11.05
2023-09-06T01:43:55.951Z,11.08
2023-09-06T01:47:45.515Z,11.07
2023-09-06T01:51:20.629Z,11.05
2023-09-06T01:55:04.677Z,11.03
2023-09-06T01:58:34.248Z,10.98
2023-09-06T02:02:25.101Z,10.95
2023-09-06T02:05:59.375Z,10.90
2023-09-06T02:09:32.209Z,10.86
2023-09-06T02:13:02.015Z,10.81
2023-09-06T02:16:32.102Z,10.78
2023-09-06T02:20:02.854Z,10.76
2023-09-06T02:23:52.191Z,10.75
2023-09-06T02:27:19.400Z,10.72
2023-09-06T02:30:46.001Z,10.69
2023-09-06T02:34:17.227Z,10.66
2023-09-06T02:38:05.078Z,10.61
2023-09-06T02:41:33.513Z,10.57
2023-09-06T02:45:23.716Z,10.52
2023-09-06T02:48:52.254Z,10.47
2023-09-06T02:52:39.667Z,10.42
2023-09-06T02:56:07.451Z,10.36
2023-09-06T02:59:33.799Z,10.32
2023-09-06T03:03:10.624Z,10.28
2023-09-06T03:06:51.539Z,10.23
2023-09-06T03:10:52.763Z,10.18
2023-09-06T03:15:03.347Z,10.15
2023-09-06T03:19:07.676Z,10.17
2023-09-06T03:22:39.372Z,10.27
2023-09-06T03:26:15.238Z,10.35
2023-09-06T03:30:02.259Z,10.42
2023-09-06T03:33:32.700Z,10.44
2023-09-06T03:37:24.460Z,10.46
2023-09-06T03:40:51.241Z,10.47
2023-09-06T03:44:22.752Z,10.47
2023-09-06T03:48:02.266Z,10.45
2023-09-06T03:52:01.022Z,10.42
2023-09-06T03:55:25.746Z,10.37
2023-09-06T03:59:09.696Z,10.37
2023-09-06T04:03:05.736Z,10.36
2023-09-06T04:06:58.481Z,10.36
2023-09-06T04:11:14.992Z,10.42
2023-09-06T04:15:05.097Z,10.42
2023-09-06T04:18:57.474Z,10.42
2023-09-06T04:22:21.792Z,10.46
2023-09-06T04:25:53.484Z,10.54
2023-09-06T04:29:51.111Z,10.68
2023-09-06T04:33:20.834Z,10.94
2023-09-06T04:36:49.015Z,11.33
2023-09-06T04:40:21.230Z,11.85
2023-09-06T04:43:49.841Z,12.32
2023-09-06T04:47:32.883Z,12.77
2023-09-06T04:51:03.487Z,13.32
2023-09-06T04:54:43.984Z,13.79
2023-09-06T04:58:11.332Z,14.29
2023-09-06T05:01:42.424Z,14.72
2023-09-06T05:05:05.913Z,14.97
2023-09-06T05:08:36.104Z,15.00
2023-09-06T05:12:16.356Z,14.98
2023-09-06T05:15:44.784Z,15.01
2023-09-06T05:19:09.950Z,15.05
2023-09-06T05:22:33.350Z,15.13
2023-09-06T05:25:58.168Z,15.29
2023-09-06T05:29:39.014Z,15.40
2023-09-06T05:33:03.422Z,15.48
2023-09-06T05:36:27.867Z,15.60
2023-09-06T05:39:52.553Z,15.79
2023-09-06T05:43:24.396Z,15.97
2023-09-06T05:46:48.432Z,16.14
2023-09-06T05:50:12.169Z,16.31
2023-09-06T05:53:35.563Z,16.53
2023-09-06T05:57:01.225Z,16.71
2023-09-06T06:00:24.728Z,16.84
2023-09-06T06:04:11.175Z,16.88
2023-09-06T06:07:45.618Z,17.01
2023-09-06T06:11:13.100Z,17.14
2023-09-06T06:14:46.353Z,17.26
2023-09-06T06:18:27.934Z,17.36
2023-09-06T06:21:54.583Z,17.50
2023-09-06T06:25:17.338Z,17.53
2023-09-06T06:28:43.848Z,17.65
2023-09-06T06:31:56.976Z,17.77
2023-09-06T06:35:12.488Z,17.86
2023-09-06T06:38:43.542Z,17.86
2023-09-06T06:42:05.064Z,17.93
2023-09-06T06:45:39.254Z,18.09
2023-09-06T06:49:25.526Z,18.19
2023-09-06T06:52:53.367Z,18.24
2023-09-06T06:56:35.869Z,18.29
2023-09-06T06:59:57.841Z,18.44
2023-09-06T07:03:36.978Z,18.51
2023-09-06T07:06:59.102Z,18.68
2023-09-06T07:10:33.231Z,18.77
2023-09-06T07:13:58.886Z,18.92
2023-09-06T07:17:21.437Z,19.19
2023-09-06T07:20:45.436Z,19.45
2023-09-06T07:24:06.085Z,19.62
2023-09-06T07:27:51.510Z,19.64
2023-09-06T07:31:19.555Z,19.65
2023-09-06T07:34:44.977Z,19.80
2023-09-06T07:38:07.569Z,19.89
2023-09-06T07:41:46.939Z,20.14
2023-09-06T07:45:09.208Z,20.30
2023-09-06T07:48:28.284Z,20.52
2023-09-06T07:51:47.391Z,20.62
2023-09-06T07:55:08.990Z,20.78
2023-09-06T07:58:22.096Z,20.90
2023-09-06T08:01:50.335Z,21.05
2023-09-06T08:05:14.085Z,21.18
2023-09-06T08:08:40.013Z,21.35
2023-09-06T08:12:07.062Z,21.47
2023-09-06T08:15:31.084Z,21.57
2023-09-06T08:18:50.756Z,21.62
2023-09-06T08:22:14.526Z,21.78
2023-09-06T08:25:37.735Z,21.90
2023-09-06T08:29:07.119Z,21.98
2023-09-06T08:32:25.380Z,21.99
2023-09-06T08:35:44.835Z,22.14
2023-09-06T08:39:03.689Z,22.12
2023-09-06T08:42:13.689Z,22.10
2023-09-06T08:45:52.091Z,22.22
2023-09-06T08:49:09.084Z,22.35
2023-09-06T08:52:31.792Z,22.52
2023-09-06T08:56:00.458Z,22.57
2023-09-06T08:59:42.474Z,22.60
2023-09-06T09:03:22.652Z,22.54
2023-09-06T09:06:48.587Z,22.58
2023-09-06T09:10:13.521Z,22.71
2023-09-06T09:13:31.048Z,22.92
2023-09-06T09:16:56.159Z,23.00
2023-09-06T09:20:30.766Z,23.11
2023-09-06T09:23:59.051Z,23.23
2023-09-06T09:27:41.157Z,23.28
2023-09-06T09:30:53.881Z,23.41
2023-09-06T09:34:07.906Z,23.38
2023-09-06T09:37:31.687Z,23.32
2023-09-06T09:41:12.843Z,23.26
2023-09-06T09:44:34.205Z,23.25
2023-09-06T09:47:54.930Z,23.21
2023-09-06T09:51:06.680Z,23.08
2023-09-06T09:54:30.764Z,23.09
2023-09-06T09:57:45.982Z,23.18
2023-09-06T10:01:01.947Z,23.31
2023-09-06T10:04:17.404Z,23.41
2023-09-06T10:07:48.784Z,23.40
2023-09-06T10:11:02.192Z,23.29
2023-09-06T10:14:27.109Z,23.40
2023-09-06T10:17:44.044Z,23.39
2023-09-06T10:21:07.041Z,23.50
2023-09-06T10:24:54.354Z,23.61
2023-09-06T10:28:24.890Z,23.66
2023-09-06T10:31:42.845Z,23.71
2023-09-06T10:35:31.225Z,23.68
2023-09-06T10:39:20.453Z,23.51
2023-09-06T10:42:27.732Z,23.50
2023-09-06T10:46:01.683Z,23.60
2023-09-06T10:49:41.236Z,23.58
2023-09-06T10:53:11.414Z,23.64
2023-09-06T10:56:29.134Z,23.73
2023-09-06T10:59:42.013Z,23.82
2023-09-06T11:03:30.842Z,23.84
2023-09-06T11:07:11.507Z,23.90
2023-09-06T11:10:37.855Z,24.02
2023-09-06T11:14:10.661Z,24.07
2023-09-06T11:17:50.932Z,24.05
2023-09-06T11:21:17.561Z,23.94
2023-09-06T11:24:42.029Z,24.06
2023-09-06T11:27:55.274Z,24.03
2023-09-06T11:31:07.532Z,24.10
2023-09-06T11:34:19.658Z,24.06
2023-09-06T11:37:46.994Z,24.14
2023-09-06T11:40:56.677Z,24.25
2023-09-06T11:44:20.711Z,24.26
2023-09-06T11:47:32.324Z,24.26
2023-09-06T11:51:27.721Z,24.34
2023-09-06T11:54:58.269Z,24.42
2023-09-06T11:58:44.383Z,24.38
2023-09-06T12:02:12.969Z,24.42
2023-09-06T12:05:49.188Z,24.47
2023-09-06T12:09:15.021Z,24.56
2023-09-06T12:12:44.361Z,24.56
2023-09-06T12:16:08.816Z,24.62
2023-09-06T12:19:46.284Z,24.61
2023-09-06T12:23:04.005Z,24.59
2023-09-06T12:26:27.340Z,24.64
2023-09-06T12:29:40.884Z,24.69
2023-09-06T12:32:49.336Z,24.75
2023-09-06T12:36:18.798Z,24.79
2023-09-06T12:39:45.758Z,24.77
2023-09-06T12:43:17.866Z,24.78
2023-09-06T12:46:39.010Z,24.82
2023-09-06T12:49:50.811Z,24.88
2023-09-06T12:53:18.309Z,24.86
2023-09-06T12:56:25.515Z,24.90
2023-09-06T12:59:47.813Z,24.92
2023-09-06T13:03:12.854Z,24.95
2023-09-06T13:06:54.786Z,24.94
2023-09-06T13:10:28.295Z,24.87
2023-09-06T13:14:01.603Z,24.86
2023-09-06T13:17:15.898Z,24.94
2023-09-06T13:20:50.053Z,24.97
2023-09-06T13:24:19.813Z,25.01
2023-09-06T13:27:28.159Z,24.99
2023-09-06T13:30:55.307Z,25.01
2023-09-06T13:34:40.519Z,25.02
2023-09-06T13:37:56.065Z,24.99
2023-09-06T13:41:18.856Z,25.03
2023-09-06T13:45:01.361Z,25.04
2023-09-06T13:48:20.494Z,24.97
2023-09-06T13:51:46.530Z,24.90
2023-09-06T13:55:08.691Z,24.88
2023-09-06T13:58:37.018Z,24.95
2023-09-06T14:01:59.375Z,25.05
2023-09-06T14:05:27.481Z,25.05
2023-09-06T14:08:37.156Z,25.09
2023-09-06T14:15:55.177Z,25.12
2023-09-06T14:19:04.605Z,25.06
2023-09-06T14:22:44.240Z,25.01
2023-09-06T14:26:05.298Z,25.00
2023-09-06T14:29:30.574Z,25.05
2023-09-06T14:32:54.404Z,25.09
2023-09-06T14:36:24.727Z,25.08
2023-09-06T14:39:41.160Z,25.12
2023-09-06T14:43:03.457Z,25.16
2023-09-06T14:46:29.619Z,25.15
2023-09-06T14:49:54.715Z,25.05
2023-09-06T14:53:30.139Z,25.01
2023-09-06T14:57:00.926Z,25.02
2023-09-06T15:00:34.875Z,24.98
2023-09-06T15:03:55.774Z,24.89
2023-09-06T15:07:41.892Z,24.88
2023-09-06T15:11:28.382Z,24.83
2023-09-06T15:14:51.697Z,24.77
2023-09-06T15:26:01.344Z,24.68
2023-09-06T15:29:26.667Z,24.58
2023-09-06T15:32:46.244Z,24.52
2023-09-06T15:36:13.514Z,24.45
2023-09-06T15:39:41.033Z,24.41
2023-09-06T15:43:14.243Z,24.35
2023-09-06T15:46:34.183Z,24.28
2023-09-06T15:49:55.954Z,24.20
2023-09-06T15:53:26.892Z,24.12
2023-09-06T15:56:38.731Z,24.01
2023-09-06T15:59:57.347Z,23.92
2023-09-06T16:03:10.022Z,23.86
2023-09-06T16:06:31.664Z,23.90
2023-09-06T16:09:55.550Z,23.86
2023-09-06T16:13:11.515Z,23.68
2023-09-06T16:16:42.916Z,23.51
2023-09-06T16:20:07.008Z,23.33
2023-09-06T16:23:32.494Z,23.18
2023-09-06T16:27:01.340Z,23.03
2023-09-06T16:30:28.385Z,22.85
2023-09-06T16:33:55.908Z,22.65
2023-09-06T16:37:14.079Z,22.47
2023-09-06T16:40:44.298Z,22.28
2023-09-06T16:44:01.172Z,22.06
2023-09-06T16:47:24.964Z,21.89
2023-09-06T16:50:47.575Z,21.71
2023-09-06T16:54:12.580Z,21.53
2023-09-06T16:57:46.481Z,21.35
2023-09-06T17:01:28.054Z,21.12
2023-09-06T17:05:10.437Z,20.92
2023-09-06T17:08:42.131Z,20.69
2023-09-06T17:12:04.886Z,20.49
2023-09-06T17:15:41.736Z,20.29
2023-09-06T17:19:29.198Z,20.11
2023-09-06T17:22:59.097Z,19.92
2023-09-06T17:26:25.914Z,19.80
2023-09-06T17:29:54.021Z,19.67
2023-09-06T17:33:42.439Z,19.55
2023-09-06T17:37:13.396Z,19.39
2023-09-06T17:40:48.489Z,19.24
2023-09-06T17:44:29.760Z,19.10
2023-09-06T17:47:58.084Z,18.95
2023-09-06T17:51:24.636Z,18.78
2023-09-06T17:54:50.564Z,18.55
2023-09-06T17:58:36.183Z,18.26
2023-09-06T18:02:00.953Z,17.97
2023-09-06T18:05:34.873Z,17.71
2023-09-06T18:09:00.416Z,17.45
2023-09-06T18:12:27.399Z,17.22
2023-09-06T18:16:06.547Z,16.98
2023-09-06T18:19:32.486Z,16.74
2023-09-06T18:23:19.285Z,16.54
2023-09-06T18:27:14.761Z,16.29
2023-09-06T18:30:47.470Z,16.09
2023-09-06T18:34:14.368Z,15.91
2023-09-06T18:37:46.060Z,15.73
2023-09-06T18:41:30.243Z,15.54
2023-09-06T18:44:58.484Z,15.38
2023-09-06T18:56:16.697Z,15.01
2023-09-06T18:59:49.023Z,14.86
2023-09-06T19:03:22.806Z,14.75
2023-09-06T19:06:54.526Z,14.67
2023-09-06T19:10:31.802Z,14.59
2023-09-06T19:14:05.060Z,14.52
2023-09-06T19:17:33.226Z,14.46
2023-09-06T19:21:20.449Z,14.39
2023-09-06T19:24:51.472Z,14.33
2023-09-06T19:28:19.929Z,14.26
2023-09-06T19:31:55.942Z,14.18
2023-09-06T19:35:42.917Z,14.10
2023-09-06T19:39:14.539Z,14.02
2023-09-06T19:42:43.364Z,13.94
2023-09-06T19:46:28.258Z,13.88
2023-09-06T19:50:03.144Z,13.79
2023-09-06T19:53:43.666Z,13.71
2023-09-06T19:57:11.532Z,13.64
2023-09-06T20:00:45.458Z,13.57
2023-09-06T20:04:33.811Z,13.47
2023-09-06T20:08:06.833Z,13.41
2023-09-06T20:11:35.324Z,13.37
2023-09-06T20:15:07.001Z,13.34
2023-09-06T20:18:40.862Z,13.32
2023-09-06T20:22:11.264Z,13.28
2023-09-06T20:26:00.125Z,13.22
2023-09-06T20:29:46.578Z,13.19
2023-09-06T20:33:45.121Z,13.13
2023-09-06T20:37:29.281Z,13.09
2023-09-06T20:41:20.569Z,13.05
2023-09-06T20:44:59.173Z,12.99
2023-09-06T20:48:31.682Z,12.94
2023-09-06T20:51:56.777Z,12.91
2023-09-06T20:55:23.048Z,12.86
2023-09-06T20:59:01.259Z,12.83
2023-09-06T21:02:34.750Z,12.80
2023-09-06T21:06:10.012Z,12.77
2023-09-06T21:09:58.826Z,12.74
2023-09-06T21:13:32.586Z,12.69
2023-09-06T21:17:19.585Z,12.65
2023-09-06T21:21:07.965Z,12.63
2023-09-06T21:25:30.580Z,12.60
2023-09-06T21:29:28.618Z,12.60
2023-09-06T21:33:13.962Z,12.57
2023-09-06T21:36:44.055Z,12.52
2023-09-06T21:40:12.573Z,12.47
2023-09-06T21:43:44.684Z,12.44
2023-09-06T21:47:25.260Z,12.38
2023-09-06T21:50:54.362Z,12.30
2023-09-06T21:54:29.190Z,12.23
2023-09-06T21:58:09.065Z,12.17
2023-09-06T22:01:56.510Z,12.10
2023-09-06T22:05:42.004Z,12.03
2023-09-06T22:09:20.854Z,11.98
2023-09-06T22:12:56.024Z,11.93
2023-09-06T22:16:36.971Z,11.87
2023-09-06T22:20:40.376Z,11.82
2023-09-06T22:24:25.594Z,11.75
2023-09-06T22:28:19.884Z,11.68
2023-09-06T22:31:53.425Z,11.64
2023-09-06T22:35:23.395Z,11.59
2023-09-06T22:39:07.028Z,11.54
2023-09-06T22:42:35.630Z,11.47
2023-09-06T22:46:18.241Z,11.42
2023-09-06T22:49:47.325Z,11.35
2023-09-06T22:53:23.407Z,11.31
2023-09-06T23:00:38.982Z,11.28
2023-09-06T23:04:14.301Z,11.24
2023-09-06T23:07:43.521Z,11.26
2023-09-06T23:11:36.183Z,11.27
2023-09-06T23:15:05.340Z,11.32
2023-09-06T23:18:54.871Z,11.31
2023-09-06T23:22:25.082Z,11.29
2023-09-06T23:26:16.101Z,11.25
2023-09-06T23:29:48.857Z,11.19
2023-09-06T23:33:27.900Z,11.12
2023-09-06T23:36:57.047Z,11.05
2023-09-06T23:40:33.778Z,10.98
2023-09-06T23:44:06.468Z,10.93
2023-09-06T23:48:07.590Z,10.89
2023-09-06T23:51:49.689Z,10.86
2023-09-06T23:55:16.343Z,10.83
2023-09-06T23:58:41.719Z,10.83
